WetterOnline ( http://www.wetteronline.de )

Wetter aktuell Kempten/Allgäu

Aktuelles Wetter: Kempten (705m)

6-stündlich | Neueste Meldungen
Ortszeit Temperatur Wetter
Mo, 22.01. 19:00 6.6° C leichter Regen
Mo, 22.01. 13:00 6.1° C leichter Regen
Mo, 22.01. 7:00 3.7° C Sprühregen
Mo, 22.01. 1:00 -1.1° C leichter Schneefall
So, 21.01. 19:00 -1.1° C bewölkt
So, 21.01. 13:00 1.2° C bewölkt
So, 21.01. 7:00 2.1° C bedeckt
So, 21.01. 1:00 2.0° C leichter Regen
Ortszeit Temperatur Wetter
Mo, 22.01. 19:00 6.6° C leichter Regen
Mo, 22.01. 18:50 6.6° C leichter Regen
Mo, 22.01. 18:40 6.3° C Regen
Mo, 22.01. 18:30 6.0° C leichter Regen
Mo, 22.01. 18:20 6.0° C leichter Regen
Mo, 22.01. 18:10 5.8° C leichter Regen
Mo, 22.01. 18:00 5.6° C Regen
Mo, 22.01. 17:30 5.7° C leichter Regen
Mo, 22.01. 17:00 5.6° C Regen
Mo, 22.01. 16:30 5.2° C Sprühregen
Mo, 22.01. 16:00 5.0° C leichter Regen
Ortszeit Relative Feuchte Sichtweite
Mo, 22.01. 19:00 88% 8 km
Mo, 22.01. 13:00 87% 25 km
Mo, 22.01. 7:00 93% 3.3 km
Mo, 22.01. 1:00 92% 2.4 km
So, 21.01. 19:00 87% 25 km
So, 21.01. 13:00 73% 25 km
So, 21.01. 7:00 80% 70 km
So, 21.01. 1:00 94% 4.7 km
Ortszeit Relative Feuchte Sichtweite
Mo, 22.01. 19:00 88% 8 km
Mo, 22.01. 18:50 88% -
Mo, 22.01. 18:40 91% -
Mo, 22.01. 18:30 91% 8 km
Mo, 22.01. 18:20 91% -
Mo, 22.01. 18:10 91% -
Mo, 22.01. 18:00 93% 5.0 km
Mo, 22.01. 17:30 91% 5.0 km
Mo, 22.01. 17:00 90% 4.0 km
Mo, 22.01. 16:30 93% 3.8 km
Mo, 22.01. 16:00 93% 7 km
Ortszeit Niederschlagsmenge Niederschlagsart
Mo, 22.01. 19:00 13 l/m2 in 12 Std. Regen
Mo, 22.01. 13:00 4 l/m2 in 6 Std. Regen
Mo, 22.01. 7:00 12 l/m2 in 12 Std. Schnee, Regen
Mo, 22.01. 1:00 0.3 l/m2 in 6 Std. Schnee
So, 21.01. 19:00 0.8 l/m2 in 12 Std. Schnee, Sprühregen
So, 21.01. 13:00 0.8 l/m2 in 6 Std. Schnee, Regen
So, 21.01. 7:00 13 l/m2 in 12 Std. Regen
So, 21.01. 1:00 11 l/m2 in 6 Std. Schnee, Regen
Ortszeit Niederschlagsmenge Niederschlagsart
Mo, 22.01. 19:00 2.2 l/m2 in 1 Std. Regen
Mo, 22.01. 18:50 keine Meldung -
Mo, 22.01. 18:40 keine Meldung -
Mo, 22.01. 18:30 0.8 l/m2 in 1 Std. -
Mo, 22.01. 18:20 keine Meldung -
Mo, 22.01. 18:10 keine Meldung -
Mo, 22.01. 18:00 3.3 l/m2 in 1 Std. Regen
Mo, 22.01. 17:30 1.5 l/m2 in 1 Std. -
Mo, 22.01. 17:00 1.2 l/m2 in 1 Std. Regen
Mo, 22.01. 16:30 0.4 l/m2 in 1 Std. -
Mo, 22.01. 16:00 0.7 l/m2 in 1 Std. Regen
Ortszeit Stärke Spitze Richtung
km/h Bft. km/h Grad Sektor
Mo, 22.01. 19:00 17 3 33 240° SW
Mo, 22.01. 13:00 13 3 44 220° SW
Mo, 22.01. 7:00 18 3 36 210° SW
Mo, 22.01. 1:00 6 1 19 130° SO
So, 21.01. 19:00 0 0 25 - -
So, 21.01. 13:00 14 3 40 280° W
So, 21.01. 7:00 14 3 32 280° W
So, 21.01. 1:00 11 2 43 220° SW
Ortszeit Stärke Spitze Richtung
km/h Bft. km/h Grad Sektor
Mo, 22.01. 19:00 17 3 30 240° SW
Mo, 22.01. 18:50 17 3 - 240° SW
Mo, 22.01. 18:40 14 3 - 240° SW
Mo, 22.01. 18:30 14 3 25 220° SW
Mo, 22.01. 18:20 14 3 - 220° SW
Mo, 22.01. 18:10 14 3 - 210° SW
Mo, 22.01. 18:00 14 3 25 210° SW
Mo, 22.01. 17:30 14 3 25 210° SW
Mo, 22.01. 17:00 15 3 31 210° SW
Mo, 22.01. 16:30 11 2 25 200° S
Mo, 22.01. 16:00 11 2 18 180° S
Ortszeit Untergrenze Bedeckung Gattung
total tief tief mittel hoch
Mo, 22.01. 19:00 660 m 7/8 7/8 - - -
Mo, 22.01. 13:00 570 m 8/8 7/8 - - -
Mo, 22.01. 7:00 1290 m 8/8 8/8 - - -
Mo, 22.01. 1:00 - 8/8 - - - -
So, 21.01. 19:00 1140 m 7/8 7/8 - - -
So, 21.01. 13:00 840 m 7/8 7/8 - - -
So, 21.01. 7:00 510 m 8/8 8/8 - - -
So, 21.01. 1:00 390 m 7/8 7/8 - - -
Ortszeit Bedeckungsgrad in Achtel und Wolkenuntergrenze
Mo, 22.01. 19:00 2(660m) 3(810m) 7(1080m)
Mo, 22.01. 18:50 2(660m) 3(810m) 7(1080m)
Mo, 22.01. 18:40 2(480m) 5(810m) 8(1080m)
Mo, 22.01. 18:30 7(450m) 7(630m) 8(1110m)
Mo, 22.01. 18:20 7(450m) 7(630m) 8(1110m)
Mo, 22.01. 18:10 6(450m) 7(600m) 7(1140m)
Mo, 22.01. 18:00 4(480m) 7(810m) 8(1110m)
Mo, 22.01. 17:30 6(540m) 7(660m) 8(1020m)
Mo, 22.01. 17:00 7(510m) 7(660m) 8(1020m)
Mo, 22.01. 16:30 6(480m) 7(600m) 8(720m)
Mo, 22.01. 16:00 7(600m) 8(780m)
Ortszeit Luftdruck NN (hPa) Tendenz (hPa in 3 Std.)
Mo, 22.01. 19:00 1012 + 1,7
Mo, 22.01. 13:00 1012 + 0,2
Mo, 22.01. 7:00 1012 - 0,8
Mo, 22.01. 1:00 1017 - 3,2
So, 21.01. 19:00 1021 + 0,5
So, 21.01. 13:00 1018 + 2,8
So, 21.01. 7:00 1009 + 3,0
So, 21.01. 1:00 1000 + 0,1
Ortszeit Luftdruck NN (hPa) Tendenz (hPa in 3 Std.)
Mo, 22.01. 19:00 1012 + 1,7
Mo, 22.01. 18:50 1012 keine Meldung
Mo, 22.01. 18:40 1012 keine Meldung
Mo, 22.01. 18:30 1012 + 1,4
Mo, 22.01. 18:20 1012 keine Meldung
Mo, 22.01. 18:10 1012 keine Meldung
Mo, 22.01. 18:00 1011 + 0,8
Mo, 22.01. 17:30 1011 + 0,1
Mo, 22.01. 17:00 1011 - 0,5
Mo, 22.01. 16:30 1011 - 1,4
Mo, 22.01. 16:00 1011 - 1,3
Ortszeit Schneehöhe (cm)
Mo, 22.01. 19:00 0
Mo, 22.01. 13:00 0
Mo, 22.01. 7:00 2
Mo, 22.01. 1:00 2
So, 21.01. 19:00 0
So, 21.01. 13:00 2
So, 21.01. 7:00 0
So, 21.01. 1:00 2
Ortszeit Schneehöhe (cm)
Mo, 22.01. 19:00 0
Mo, 22.01. 18:50 0
Mo, 22.01. 18:40 0
Mo, 22.01. 18:30 0
Mo, 22.01. 18:20 0
Mo, 22.01. 18:10 0
Mo, 22.01. 18:00 0
Mo, 22.01. 17:30 0
Mo, 22.01. 17:00 0
Mo, 22.01. 16:30 0
Mo, 22.01. 16:00 0
Link zu dieser Seite / Seite empfehlen

Das Wetter in ...